sensor_id;sensor_type;location;lat;lon;timestamp;P1;durP1;ratioP1;P2;durP2;ratioP2
23317;SDS011;11831;55.918;37.746;2023-01-15T19:33:39;24.67;;;12.75;;
23317;SDS011;11831;55.918;37.746;2023-01-15T19:36:05;21.92;;;11.18;;
23317;SDS011;11831;55.918;37.746;2023-01-15T19:38:32;18.85;;;11.05;;
23317;SDS011;11831;55.918;37.746;2023-01-15T19:41:06;17.62;;;11.20;;
23317;SDS011;11831;55.918;37.746;2023-01-15T19:43:52;17.42;;;10.77;;
23317;SDS011;11831;55.918;37.746;2023-01-15T19:46:37;18.77;;;10.40;;
23317;SDS011;11831;55.918;37.746;2023-01-15T19:49:22;17.98;;;10.98;;
23317;SDS011;11831;55.918;37.746;2023-01-15T19:52:07;19.08;;;10.82;;
23317;SDS011;11831;55.918;37.746;2023-01-15T19:54:51;15.20;;;9.80;;
23317;SDS011;11831;55.918;37.746;2023-01-15T19:57:20;19.20;;;10.93;;
23317;SDS011;11831;55.918;37.746;2023-01-15T19:59:47;19.83;;;9.82;;
23317;SDS011;11831;55.918;37.746;2023-01-15T20:02:14;14.27;;;9.18;;
23317;SDS011;11831;55.918;37.746;2023-01-15T20:04:41;16.10;;;9.63;;
23317;SDS011;11831;55.918;37.746;2023-01-15T20:07:10;18.20;;;10.43;;
23317;SDS011;11831;55.918;37.746;2023-01-15T20:09:40;15.63;;;9.73;;
23317;SDS011;11831;55.918;37.746;2023-01-15T20:12:07;18.87;;;10.13;;
23317;SDS011;11831;55.918;37.746;2023-01-15T20:14:53;16.77;;;10.13;;
23317;SDS011;11831;55.918;37.746;2023-01-15T20:17:20;18.40;;;9.50;;
23317;SDS011;11831;55.918;37.746;2023-01-15T20:19:46;17.73;;;10.15;;
23317;SDS011;11831;55.918;37.746;2023-01-15T20:22:13;17.60;;;9.88;;
23317;SDS011;11831;55.918;37.746;2023-01-15T20:24:40;19.10;;;9.82;;
23317;SDS011;11831;55.918;37.746;2023-01-15T20:27:09;17.12;;;9.70;;
23317;SDS011;11831;55.918;37.746;2023-01-15T20:29:36;19.08;;;10.25;;
23317;SDS011;11831;55.918;37.746;2023-01-15T20:32:04;13.77;;;8.68;;
23317;SDS011;11831;55.918;37.746;2023-01-15T20:34:31;17.05;;;10.55;;
23317;SDS011;11831;55.918;37.746;2023-01-15T20:37:01;14.50;;;9.65;;
23317;SDS011;11831;55.918;37.746;2023-01-15T20:39:27;16.55;;;9.73;;
23317;SDS011;11831;55.918;37.746;2023-01-15T20:41:53;16.70;;;9.60;;
23317;SDS011;11831;55.918;37.746;2023-01-15T20:44:38;22.42;;;10.27;;
23317;SDS011;11831;55.918;37.746;2023-01-15T20:47:30;19.15;;;9.77;;
23317;SDS011;11831;55.918;37.746;2023-01-15T20:50:15;15.68;;;10.68;;
23317;SDS011;11831;55.918;37.746;2023-01-15T20:52:46;21.30;;;11.10;;
23317;SDS011;11831;55.918;37.746;2023-01-15T20:57:40;22.80;;;11.50;;
23317;SDS011;11831;55.918;37.746;2023-01-15T21:00:08;19.60;;;11.73;;
23317;SDS011;11831;55.918;37.746;2023-01-15T21:02:37;16.47;;;10.70;;
23317;SDS011;11831;55.918;37.746;2023-01-15T21:05:03;20.73;;;11.18;;
23317;SDS011;11831;55.918;37.746;2023-01-15T21:07:30;21.08;;;12.23;;
23317;SDS011;11831;55.918;37.746;2023-01-15T21:09:57;19.15;;;11.38;;
23317;SDS011;11831;55.918;37.746;2023-01-15T21:12:23;18.48;;;11.25;;
23317;SDS011;11831;55.918;37.746;2023-01-15T21:14:49;20.35;;;12.35;;
23317;SDS011;11831;55.918;37.746;2023-01-15T21:17:16;19.75;;;12.73;;
23317;SDS011;11831;55.918;37.746;2023-01-15T21:19:42;22.35;;;12.68;;
23317;SDS011;11831;55.918;37.746;2023-01-15T21:22:08;21.90;;;13.02;;
23317;SDS011;11831;55.918;37.746;2023-01-15T21:24:35;19.62;;;12.25;;
23317;SDS011;11831;55.918;37.746;2023-01-15T21:27:01;23.12;;;13.13;;
23317;SDS011;11831;55.918;37.746;2023-01-15T21:29:27;22.55;;;13.15;;
23317;SDS011;11831;55.918;37.746;2023-01-15T21:31:54;20.65;;;13.07;;
23317;SDS011;11831;55.918;37.746;2023-01-15T21:34:20;20.05;;;12.60;;
23317;SDS011;11831;55.918;37.746;2023-01-15T21:36:47;26.62;;;12.70;;
23317;SDS011;11831;55.918;37.746;2023-01-15T21:39:14;21.02;;;13.60;;
23317;SDS011;11831;55.918;37.746;2023-01-15T21:41:42;25.12;;;12.85;;
23317;SDS011;11831;55.918;37.746;2023-01-15T21:44:27;23.62;;;12.80;;
23317;SDS011;11831;55.918;37.746;2023-01-15T21:46:58;25.00;;;13.20;;
23317;SDS011;11831;55.918;37.746;2023-01-15T21:49:26;29.70;;;14.38;;
23317;SDS011;11831;55.918;37.746;2023-01-15T21:51:53;22.45;;;12.20;;
23317;SDS011;11831;55.918;37.746;2023-01-15T21:54:19;19.20;;;11.52;;
23317;SDS011;11831;55.918;37.746;2023-01-15T21:56:46;18.20;;;11.30;;
23317;SDS011;11831;55.918;37.746;2023-01-15T21:59:12;17.50;;;10.20;;
23317;SDS011;11831;55.918;37.746;2023-01-15T22:01:39;27.33;;;13.52;;
23317;SDS011;11831;55.918;37.746;2023-01-15T22:04:06;19.12;;;11.98;;
23317;SDS011;11831;55.918;37.746;2023-01-15T22:06:32;22.62;;;13.77;;
23317;SDS011;11831;55.918;37.746;2023-01-15T22:08:58;21.98;;;12.85;;
23317;SDS011;11831;55.918;37.746;2023-01-15T22:11:25;23.00;;;11.95;;
23317;SDS011;11831;55.918;37.746;2023-01-15T22:16:42;25.05;;;13.07;;
23317;SDS011;11831;55.918;37.746;2023-01-15T22:19:10;25.08;;;12.32;;
23317;SDS011;11831;55.918;37.746;2023-01-15T22:21:44;20.17;;;12.13;;
23317;SDS011;11831;55.918;37.746;2023-01-15T22:24:14;25.60;;;12.48;;
23317;SDS011;11831;55.918;37.746;2023-01-15T22:26:41;23.87;;;12.77;;
23317;SDS011;11831;55.918;37.746;2023-01-15T22:29:09;26.50;;;13.43;;
23317;SDS011;11831;55.918;37.746;2023-01-15T22:31:39;26.77;;;13.60;;
23317;SDS011;11831;55.918;37.746;2023-01-15T22:34:08;21.52;;;11.70;;
23317;SDS011;11831;55.918;37.746;2023-01-15T22:36:34;27.77;;;13.65;;
23317;SDS011;11831;55.918;37.746;2023-01-15T22:39:01;26.00;;;13.48;;
23317;SDS011;11831;55.918;37.746;2023-01-15T22:41:27;24.60;;;12.32;;
23317;SDS011;11831;55.918;37.746;2023-01-15T22:44:12;25.23;;;13.38;;
23317;SDS011;11831;55.918;37.746;2023-01-15T22:46:38;23.67;;;12.73;;
23317;SDS011;11831;55.918;37.746;2023-01-15T22:49:04;27.15;;;13.30;;
23317;SDS011;11831;55.918;37.746;2023-01-15T22:51:31;27.75;;;14.18;;
23317;SDS011;11831;55.918;37.746;2023-01-15T22:53:57;26.12;;;12.90;;
23317;SDS011;11831;55.918;37.746;2023-01-15T22:56:24;22.77;;;13.25;;
23317;SDS011;11831;55.918;37.746;2023-01-15T22:58:53;24.63;;;11.95;;
23317;SDS011;11831;55.918;37.746;2023-01-15T23:01:23;24.63;;;13.07;;
23317;SDS011;11831;55.918;37.746;2023-01-15T23:03:49;22.75;;;12.15;;
23317;SDS011;11831;55.918;37.746;2023-01-15T23:06:15;25.15;;;12.10;;
23317;SDS011;11831;55.918;37.746;2023-01-15T23:08:53;25.98;;;12.23;;
23317;SDS011;11831;55.918;37.746;2023-01-15T23:11:23;25.23;;;13.25;;
23317;SDS011;11831;55.918;37.746;2023-01-15T23:13:51;27.92;;;12.90;;
23317;SDS011;11831;55.918;37.746;2023-01-15T23:16:17;25.62;;;13.07;;
23317;SDS011;11831;55.918;37.746;2023-01-15T23:18:44;23.70;;;13.02;;
23317;SDS011;11831;55.918;37.746;2023-01-15T23:21:12;20.75;;;11.12;;
23317;SDS011;11831;55.918;37.746;2023-01-15T23:23:40;25.50;;;12.95;;
23317;SDS011;11831;55.918;37.746;2023-01-15T23:26:14;21.92;;;12.05;;
23317;SDS011;11831;55.918;37.746;2023-01-15T23:28:42;23.73;;;13.18;;
23317;SDS011;11831;55.918;37.746;2023-01-15T23:31:09;26.50;;;12.50;;
23317;SDS011;11831;55.918;37.746;2023-01-15T23:33:36;26.37;;;13.50;;
23317;SDS011;11831;55.918;37.746;2023-01-15T23:36:03;32.17;;;14.05;;
23317;SDS011;11831;55.918;37.746;2023-01-15T23:38:34;28.10;;;13.82;;
23317;SDS011;11831;55.918;37.746;2023-01-15T23:41:11;26.87;;;13.45;;
23317;SDS011;11831;55.918;37.746;2023-01-15T23:43:40;29.15;;;13.27;;
23317;SDS011;11831;55.918;37.746;2023-01-15T23:46:25;27.52;;;13.13;;
23317;SDS011;11831;55.918;37.746;2023-01-15T23:49:03;24.80;;;13.43;;
23317;SDS011;11831;55.918;37.746;2023-01-15T23:51:34;26.83;;;12.75;;
23317;SDS011;11831;55.918;37.746;2023-01-15T23:54:01;22.75;;;11.40;;
23317;SDS011;11831;55.918;37.746;2023-01-15T23:56:29;25.67;;;12.35;;
23317;SDS011;11831;55.918;37.746;2023-01-15T23:58:56;28.33;;;13.50;;
